Time,TemperatureF,DewpointF,PressureIn,WindDirection,WindDirectionDegrees,WindSpeedMPH,WindSpeedGustMPH,Humidity,HourlyPrecipIn,Conditions,Clouds,dailyrainin,SolarRadiationWatts/m^2,SoftwareType,DateUTC
2013-08-04 00:02:00,50.0,49.0,-100.00,NW,320,0.0,0.0,95,0.00,,,0.00,0.000000,,2013-08-04 05:02:00,
2013-08-04 00:10:00,49.0,48.0,-100.00,NW,320,0.0,0.0,96,0.00,,,0.00,0.000000,,2013-08-04 05:10:00,
2013-08-04 00:32:00,49.0,48.0,-100.00,NW,320,0.0,0.0,96,0.00,,,0.00,0.000000,,2013-08-04 05:32:00,
2013-08-04 00:42:00,49.0,48.0,-100.00,NW,320,0.0,0.0,96,0.00,,,0.00,0.000000,,2013-08-04 05:42:00,
2013-08-04 00:52:00,49.0,48.0,-100.00,NW,320,0.0,0.0,96,0.00,,,0.00,0.000000,,2013-08-04 05:52:00,
2013-08-04 01:02:00,49.0,48.0,-100.00,NW,320,0.0,0.0,96,0.00,,,0.00,0.000000,,2013-08-04 06:02:00,
2013-08-04 01:10:00,47.0,46.0,-100.00,NW,320,0.0,0.0,97,0.00,,,0.00,0.000000,,2013-08-04 06:10:00,
2013-08-04 01:43:00,47.0,46.0,-100.00,NW,320,0.0,0.0,97,0.00,,,0.00,0.000000,,2013-08-04 06:43:00,
2013-08-04 01:52:00,47.0,46.0,-100.00,NW,320,0.0,0.0,97,0.00,,,0.00,0.000000,,2013-08-04 06:52:00,
2013-08-04 02:02:00,47.0,46.0,-100.00,NW,320,0.0,0.0,97,0.00,,,0.00,0.000000,,2013-08-04 07:02:00,
2013-08-04 02:10:00,47.0,46.0,-100.00,NW,320,0.0,0.0,98,0.00,,,0.00,0.000000,,2013-08-04 07:10:00,
2013-08-04 02:43:00,47.0,46.0,-100.00,NW,320,0.0,0.0,98,0.00,,,0.00,0.000000,,2013-08-04 07:43:00,
2013-08-04 02:53:00,47.0,46.0,-100.00,NW,320,0.0,0.0,98,0.00,,,0.00,0.000000,,2013-08-04 07:53:00,
2013-08-04 03:02:00,47.0,46.0,-100.00,NW,320,0.0,0.0,98,0.00,,,0.00,0.000000,,2013-08-04 08:02:00,
2013-08-04 03:10:00,46.0,45.0,-100.00,NW,320,0.0,0.0,98,0.00,,,0.00,0.000000,,2013-08-04 08:10:00,
2013-08-04 03:43:00,46.0,45.0,-100.00,NW,320,0.0,0.0,98,0.00,,,0.00,0.000000,,2013-08-04 08:43:00,
2013-08-04 03:53:00,46.0,45.0,-100.00,NW,320,0.0,0.0,98,0.00,,,0.00,0.000000,,2013-08-04 08:53:00,
2013-08-04 04:02:00,46.0,45.0,-100.00,NW,320,0.0,0.0,98,0.00,,,0.00,0.000000,,2013-08-04 09:02:00,
2013-08-04 04:10:00,46.0,46.0,-100.00,NW,320,0.0,1.0,99,0.00,,,0.00,0.000000,,2013-08-04 09:10:00,
2013-08-04 04:32:00,46.0,46.0,-100.00,NW,320,0.0,1.0,99,0.00,,,0.00,0.000000,,2013-08-04 09:32:00,
2013-08-04 04:43:00,46.0,46.0,-100.00,NW,320,0.0,1.0,99,0.00,,,0.00,0.000000,,2013-08-04 09:43:00,
2013-08-04 04:52:00,46.0,46.0,-100.00,NW,320,0.0,1.0,99,0.00,,,0.00,0.000000,,2013-08-04 09:52:00,
2013-08-04 05:02:00,46.0,46.0,-100.00,NW,320,0.0,1.0,99,0.00,,,0.00,0.000000,,2013-08-04 10:02:00,
2013-08-04 05:10:00,45.0,45.0,-100.00,NW,319,0.0,2.0,99,0.00,,,0.00,0.000000,,2013-08-04 10:10:00,
2013-08-04 05:32:00,45.0,45.0,-100.00,NW,319,0.0,2.0,99,0.00,,,0.00,0.000000,,2013-08-04 10:32:00,
2013-08-04 05:42:00,45.0,45.0,-100.00,NW,319,0.0,2.0,99,0.00,,,0.00,0.000000,,2013-08-04 10:42:00,
2013-08-04 05:53:00,45.0,45.0,-100.00,NW,319,0.0,2.0,99,0.00,,,0.00,0.000000,,2013-08-04 10:53:00,
2013-08-04 06:02:00,45.0,45.0,-100.00,NW,319,0.0,2.0,99,0.00,,,0.00,0.000000,,2013-08-04 11:02:00,
2013-08-04 06:10:00,44.0,43.0,-100.00,NW,319,0.0,0.0,98,0.00,,,0.00,3.000000,,2013-08-04 11:10:00,
2013-08-04 06:32:00,44.0,43.0,-100.00,NW,319,0.0,0.0,98,0.00,,,0.00,3.000000,,2013-08-04 11:32:00,
2013-08-04 06:42:00,44.0,43.0,-100.00,NW,319,0.0,0.0,98,0.00,,,0.00,3.000000,,2013-08-04 11:42:00,
2013-08-04 06:53:00,44.0,43.0,-100.00,NW,319,0.0,0.0,98,0.00,,,0.00,3.000000,,2013-08-04 11:53:00,
2013-08-04 07:02:00,44.0,43.0,-100.00,NW,319,0.0,0.0,98,0.00,,,0.00,3.000000,,2013-08-04 12:02:00,
2013-08-04 07:10:00,46.0,46.0,-100.00,NW,320,0.0,0.0,99,0.00,,,0.00,17.000000,,2013-08-04 12:10:00,
2013-08-04 07:33:00,46.0,46.0,-100.00,NW,320,0.0,0.0,99,0.00,,,0.00,17.000000,,2013-08-04 12:33:00,
2013-08-04 07:43:00,46.0,46.0,-100.00,NW,320,0.0,0.0,99,0.00,,,0.00,17.000000,,2013-08-04 12:43:00,
2013-08-04 07:53:00,46.0,46.0,-100.00,NW,320,0.0,0.0,99,0.00,,,0.00,17.000000,,2013-08-04 12:53:00,
2013-08-04 08:02:00,46.0,46.0,-100.00,NW,320,0.0,0.0,99,0.00,,,0.00,17.000000,,2013-08-04 13:02:00,
2013-08-04 08:10:00,53.0,53.0,-100.00,NW,320,0.0,0.0,99,0.00,,,-99.99,27.000000,,2013-08-04 13:10:00,
2013-08-04 08:32:00,53.0,53.0,-100.00,NW,320,0.0,0.0,99,0.00,,,-99.99,27.000000,,2013-08-04 13:32:00,
2013-08-04 08:43:00,53.0,53.0,-100.00,NW,320,0.0,0.0,99,0.00,,,-99.99,27.000000,,2013-08-04 13:43:00,
2013-08-04 08:52:00,53.0,53.0,-100.00,NW,320,0.0,0.0,99,0.00,,,-99.99,27.000000,,2013-08-04 13:52:00,
2013-08-04 09:02:00,53.0,53.0,-100.00,NW,320,0.0,0.0,99,0.00,,,-99.99,27.000000,,2013-08-04 14:02:00,
2013-08-04 09:10:00,60.0,49.0,-100.00,NE,48,2.0,4.0,67,0.00,,,0.00,278.000000,,2013-08-04 14:10:00,
2013-08-04 09:33:00,60.0,49.0,-100.00,NE,48,2.0,4.0,67,0.00,,,0.00,278.000000,,2013-08-04 14:33:00,
2013-08-04 09:43:00,60.0,49.0,-100.00,NE,48,2.0,4.0,67,0.00,,,0.00,278.000000,,2013-08-04 14:43:00,
2013-08-04 09:53:00,60.0,49.0,-100.00,NE,48,2.0,4.0,67,0.00,,,0.00,278.000000,,2013-08-04 14:53:00,
2013-08-04 10:02:00,60.0,49.0,-100.00,NE,48,2.0,4.0,67,0.00,,,0.00,278.000000,,2013-08-04 15:02:00,
2013-08-04 10:10:00,65.0,42.0,-100.00,North,358,2.0,6.0,43,0.00,,,0.00,577.000000,,2013-08-04 15:10:00,
2013-08-04 10:32:00,65.0,42.0,-100.00,North,358,2.0,6.0,43,0.00,,,0.00,577.000000,,2013-08-04 15:32:00,
2013-08-04 10:43:00,65.0,42.0,-100.00,North,358,2.0,6.0,43,0.00,,,0.00,577.000000,,2013-08-04 15:43:00,
2013-08-04 10:53:00,65.0,42.0,-100.00,North,358,2.0,6.0,43,0.00,,,0.00,577.000000,,2013-08-04 15:53:00,
2013-08-04 11:02:00,65.0,42.0,-100.00,North,358,2.0,6.0,43,0.00,,,0.00,577.000000,,2013-08-04 16:02:00,
2013-08-04 11:10:00,66.0,42.0,-100.00,NNE,15,2.0,7.0,42,0.00,,,0.00,536.000000,,2013-08-04 16:10:00,
2013-08-04 11:32:00,66.0,42.0,-100.00,NNE,15,2.0,7.0,42,0.00,,,0.00,536.000000,,2013-08-04 16:32:00,
2013-08-04 11:43:00,66.0,42.0,-100.00,NNE,15,2.0,7.0,42,0.00,,,0.00,536.000000,,2013-08-04 16:43:00,
2013-08-04 11:53:00,66.0,42.0,-100.00,NNE,15,2.0,7.0,42,0.00,,,0.00,536.000000,,2013-08-04 16:53:00,
2013-08-04 12:02:00,66.0,42.0,-100.00,NNE,15,2.0,7.0,42,0.00,,,0.00,536.000000,,2013-08-04 17:02:00,
2013-08-04 12:10:00,68.0,43.0,-100.00,SSE,158,1.0,8.0,41,0.00,,,0.00,504.000000,,2013-08-04 17:10:00,
2013-08-04 12:32:00,68.0,43.0,-100.00,SSE,158,1.0,8.0,41,0.00,,,0.00,504.000000,,2013-08-04 17:32:00,
2013-08-04 12:43:00,68.0,43.0,-100.00,SSE,158,1.0,8.0,41,0.00,,,0.00,504.000000,,2013-08-04 17:43:00,
2013-08-04 12:53:00,68.0,43.0,-100.00,SSE,158,1.0,8.0,41,0.00,,,0.00,504.000000,,2013-08-04 17:53:00,
2013-08-04 13:02:00,68.0,43.0,-100.00,SSE,158,1.0,8.0,41,0.00,,,0.00,504.000000,,2013-08-04 18:02:00,
2013-08-04 13:10:00,71.0,44.0,-100.00,ENE,57,3.0,7.0,38,0.00,,,-99.99,542.000000,,2013-08-04 18:10:00,
2013-08-04 13:33:00,71.0,44.0,-100.00,ENE,57,3.0,7.0,38,0.00,,,-99.99,542.000000,,2013-08-04 18:33:00,
2013-08-04 13:43:00,71.0,44.0,-100.00,ENE,57,3.0,7.0,38,0.00,,,-99.99,542.000000,,2013-08-04 18:43:00,
2013-08-04 13:52:00,71.0,44.0,-100.00,ENE,57,3.0,7.0,38,0.00,,,-99.99,542.000000,,2013-08-04 18:52:00,
2013-08-04 14:02:00,71.0,44.0,-100.00,ENE,57,3.0,7.0,38,0.00,,,-99.99,542.000000,,2013-08-04 19:02:00,
2013-08-04 14:10:00,69.0,44.0,-100.00,ENE,75,1.0,7.0,40,0.00,,,0.00,374.000000,,2013-08-04 19:10:00,
2013-08-04 14:33:00,69.0,44.0,-100.00,ENE,75,1.0,7.0,40,0.00,,,0.00,374.000000,,2013-08-04 19:33:00,
2013-08-04 14:43:00,69.0,44.0,-100.00,ENE,75,1.0,7.0,40,0.00,,,0.00,374.000000,,2013-08-04 19:43:00,
2013-08-04 14:53:00,69.0,44.0,-100.00,ENE,75,1.0,7.0,40,0.00,,,0.00,374.000000,,2013-08-04 19:53:00,
2013-08-04 15:02:00,69.0,44.0,-100.00,ENE,75,1.0,7.0,40,0.00,,,0.00,374.000000,,2013-08-04 20:02:00,
2013-08-04 15:10:00,73.0,46.0,-100.00,NE,44,2.0,8.0,38,0.00,,,0.00,569.000000,,2013-08-04 20:10:00,
2013-08-04 15:33:00,73.0,46.0,-100.00,NE,44,2.0,8.0,38,0.00,,,0.00,569.000000,,2013-08-04 20:33:00,
2013-08-04 15:42:00,73.0,46.0,-100.00,NE,44,2.0,8.0,38,0.00,,,0.00,569.000000,,2013-08-04 20:42:00,
2013-08-04 15:53:00,73.0,46.0,-100.00,NE,44,2.0,8.0,38,0.00,,,0.00,569.000000,,2013-08-04 20:53:00,
2013-08-04 16:02:00,73.0,46.0,-100.00,NE,44,2.0,8.0,38,0.00,,,0.00,569.000000,,2013-08-04 21:02:00,
2013-08-04 16:10:00,73.0,44.0,-100.00,East,81,2.0,6.0,36,0.00,,,0.00,539.000000,,2013-08-04 21:10:00,
2013-08-04 16:43:00,73.0,44.0,-100.00,East,81,2.0,6.0,36,0.00,,,0.00,539.000000,,2013-08-04 21:43:00,
2013-08-04 16:53:00,73.0,44.0,-100.00,East,81,2.0,6.0,36,0.00,,,0.00,539.000000,,2013-08-04 21:53:00,
2013-08-04 17:02:00,73.0,44.0,-100.00,East,81,2.0,6.0,36,0.00,,,0.00,539.000000,,2013-08-04 22:02:00,
2013-08-04 17:10:00,74.0,45.0,-100.00,SSW,212,3.0,8.0,36,0.00,,,0.00,591.000000,,2013-08-04 22:10:00,
2013-08-04 17:32:00,74.0,45.0,-100.00,SSW,212,3.0,8.0,36,0.00,,,0.00,591.000000,,2013-08-04 22:32:00,
2013-08-04 17:43:00,74.0,45.0,-100.00,SSW,212,3.0,8.0,36,0.00,,,0.00,591.000000,,2013-08-04 22:43:00,
2013-08-04 17:53:00,74.0,45.0,-100.00,SSW,212,3.0,8.0,36,0.00,,,0.00,591.000000,,2013-08-04 22:53:00,
2013-08-04 18:02:00,74.0,45.0,-100.00,SSW,212,3.0,8.0,36,0.00,,,0.00,591.000000,,2013-08-04 23:02:00,
2013-08-04 18:10:00,69.0,47.0,-100.00,SSW,210,0.0,9.0,45,0.00,,,0.00,172.000000,,2013-08-04 23:10:00,
2013-08-04 18:32:00,69.0,47.0,-100.00,SSW,210,0.0,9.0,45,0.00,,,0.00,172.000000,,2013-08-04 23:32:00,
2013-08-04 18:43:00,69.0,47.0,-100.00,SSW,210,0.0,9.0,45,0.00,,,0.00,172.000000,,2013-08-04 23:43:00,
2013-08-04 18:53:00,69.0,47.0,-100.00,SSW,210,0.0,9.0,45,0.00,,,0.00,172.000000,,2013-08-04 23:53:00,
2013-08-04 19:02:00,69.0,47.0,-100.00,SSW,210,0.0,9.0,45,0.00,,,0.00,172.000000,,2013-08-05 00:02:00,
2013-08-04 19:10:00,70.0,48.0,-100.00,SSE,149,1.0,5.0,46,0.00,,,0.00,104.000000,,2013-08-05 00:10:00,
2013-08-04 19:42:00,70.0,48.0,-100.00,SSE,149,1.0,5.0,46,0.00,,,0.00,104.000000,,2013-08-05 00:42:00,
2013-08-04 19:53:00,70.0,48.0,-100.00,SSE,149,1.0,5.0,46,0.00,,,0.00,104.000000,,2013-08-05 00:53:00,
2013-08-04 20:02:00,70.0,48.0,-100.00,SSE,149,1.0,5.0,46,0.00,,,0.00,104.000000,,2013-08-05 01:02:00,
2013-08-04 20:10:00,65.0,49.0,-100.00,SW,223,0.0,4.0,56,0.00,,,0.00,49.000000,,2013-08-05 01:10:00,
2013-08-04 20:33:00,65.0,49.0,-100.00,SW,223,0.0,4.0,56,0.00,,,0.00,49.000000,,2013-08-05 01:33:00,
2013-08-04 20:43:00,65.0,49.0,-100.00,SW,223,0.0,4.0,56,0.00,,,0.00,49.000000,,2013-08-05 01:43:00,
2013-08-04 20:52:00,65.0,49.0,-100.00,SW,223,0.0,4.0,56,0.00,,,0.00,49.000000,,2013-08-05 01:52:00,
2013-08-04 21:02:00,65.0,49.0,-100.00,SW,223,0.0,4.0,56,0.00,,,0.00,49.000000,,2013-08-05 02:02:00,
2013-08-04 21:10:00,57.0,50.0,-100.00,SW,222,0.0,2.0,77,0.00,,,0.00,2.000000,,2013-08-05 02:10:00,
2013-08-04 21:33:00,57.0,50.0,-100.00,SW,222,0.0,2.0,77,0.00,,,0.00,2.000000,,2013-08-05 02:33:00,
2013-08-04 21:43:00,57.0,50.0,-100.00,SW,222,0.0,2.0,77,0.00,,,0.00,2.000000,,2013-08-05 02:43:00,
2013-08-04 21:53:00,57.0,50.0,-100.00,SW,222,0.0,2.0,77,0.00,,,0.00,2.000000,,2013-08-05 02:53:00,
2013-08-04 22:02:00,57.0,50.0,-100.00,SW,222,0.0,2.0,77,0.00,,,0.00,2.000000,,2013-08-05 03:02:00,
2013-08-04 22:10:00,54.0,51.0,-100.00,SW,222,0.0,0.0,89,0.00,,,0.00,0.000000,,2013-08-05 03:10:00,
2013-08-04 22:32:00,54.0,51.0,-100.00,SW,222,0.0,0.0,89,0.00,,,0.00,0.000000,,2013-08-05 03:32:00,
2013-08-04 22:42:00,54.0,51.0,-100.00,SW,222,0.0,0.0,89,0.00,,,0.00,0.000000,,2013-08-05 03:42:00,
2013-08-04 22:53:00,54.0,51.0,-100.00,SW,222,0.0,0.0,89,0.00,,,0.00,0.000000,,2013-08-05 03:53:00,
2013-08-04 23:02:00,54.0,51.0,-100.00,SW,222,0.0,0.0,89,0.00,,,0.00,0.000000,,2013-08-05 04:02:00,
2013-08-04 23:10:00,53.0,51.0,-100.00,SW,222,0.0,0.0,92,0.00,,,0.00,0.000000,,2013-08-05 04:10:00,
2013-08-04 23:32:00,53.0,51.0,-100.00,SW,222,0.0,0.0,92,0.00,,,0.00,0.000000,,2013-08-05 04:32:00,
2013-08-04 23:43:00,53.0,51.0,-100.00,SW,222,0.0,0.0,92,0.00,,,0.00,0.000000,,2013-08-05 04:43:00,
2013-08-04 23:52:00,53.0,51.0,-100.00,SW,222,0.0,0.0,92,0.00,,,0.00,0.000000,,2013-08-05 04:52:00,